createdAt,value
2022-09-20T00:02:02.847Z,100393.56
2022-09-20T00:04:30.518Z,100385.66
2022-09-20T00:06:58.247Z,100391.72
2022-09-20T00:09:25.817Z,100388.16
2022-09-20T00:11:53.497Z,100393.38
2022-09-20T00:14:22.504Z,100391.63
2022-09-20T00:16:50.183Z,100358.47
2022-09-20T00:19:18.927Z,100380.25
2022-09-20T00:21:46.601Z,100391.59
2022-09-20T00:24:14.409Z,100388.06
2022-09-20T00:26:42.024Z,100379.28
2022-09-20T00:29:09.683Z,100387.09
2022-09-20T00:31:41.360Z,100385.25
2022-09-20T00:34:27.767Z,100396.72
2022-09-20T00:36:55.343Z,100382.56
2022-09-20T00:39:22.970Z,100393.03
2022-09-20T00:41:50.587Z,100397.38
2022-09-20T00:44:51.171Z,100398.22
2022-09-20T00:47:25.397Z,100385.25
2022-09-20T00:49:56.183Z,100387.75
2022-09-20T00:52:24.003Z,100374.63
2022-09-20T00:54:51.618Z,100379.00
2022-09-20T00:57:19.263Z,100394.63
2022-09-20T00:59:47.903Z,100393.75
2022-09-20T01:02:19.421Z,100394.63
2022-09-20T01:04:48.414Z,100385.91
2022-09-20T01:07:17.168Z,100399.00
2022-09-20T01:09:45.133Z,100395.47
2022-09-20T01:12:14.939Z,100402.47
2022-09-20T01:14:42.888Z,100392.91
2022-09-20T01:17:10.526Z,100400.75
2022-09-20T01:19:41.171Z,100399.06
2022-09-20T01:22:15.942Z,100402.59
2022-09-20T01:24:45.831Z,100403.47
2022-09-20T01:27:15.940Z,100399.16
2022-09-20T01:29:53.229Z,100353.03
2022-09-20T01:32:21.804Z,100399.34
2022-09-20T01:34:50.342Z,100390.69
2022-09-20T01:37:20.833Z,100403.81
2022-09-20T01:39:52.430Z,100413.53
2022-09-20T01:42:20.227Z,100353.44
2022-09-20T01:44:53.188Z,100406.63
2022-09-20T01:47:25.379Z,100402.31
2022-09-20T01:49:55.596Z,100397.94
2022-09-20T01:52:49.269Z,100389.25
2022-09-20T01:55:51.797Z,100395.34
2022-09-20T01:59:22.558Z,100396.28
2022-09-20T02:02:28.464Z,100404.22
2022-09-20T02:05:06.296Z,100394.69
2022-09-20T02:07:52.233Z,100400.81
2022-09-20T02:10:57.201Z,100396.41
2022-09-20T02:13:30.107Z,100390.38
2022-09-20T02:16:14.093Z,100403.50
2022-09-20T02:18:48.950Z,100398.22
2022-09-20T02:21:21.862Z,100344.19
2022-09-20T02:23:52.958Z,100408.72
2022-09-20T02:26:28.184Z,100405.31
2022-09-20T02:28:58.083Z,100369.53
2022-09-20T02:31:34.899Z,100393.00
2022-09-20T02:34:19.947Z,100396.50
2022-09-20T02:36:55.072Z,100390.41
2022-09-20T02:39:23.641Z,100365.09
2022-09-20T02:42:02.583Z,100343.28
2022-09-20T02:44:47.321Z,100393.84
2022-09-20T02:47:20.831Z,100397.38
2022-09-20T02:49:55.164Z,100387.75
2022-09-20T02:52:29.210Z,100397.38
2022-09-20T02:55:00.053Z,100379.88
2022-09-20T02:57:31.219Z,100348.44
2022-09-20T03:00:01.764Z,100385.16
2022-09-20T03:02:31.722Z,100374.72
2022-09-20T03:05:09.584Z,100387.81
2022-09-20T03:07:44.811Z,100363.44
2022-09-20T03:10:17.307Z,100374.78
2022-09-20T03:12:53.436Z,100366.97
2022-09-20T03:15:25.004Z,100390.47
2022-09-20T03:17:53.802Z,100387.00
2022-09-20T03:20:25.865Z,100386.16
2022-09-20T03:22:59.364Z,100384.44
2022-09-20T03:25:44.940Z,100394.88
2022-09-20T03:28:23.336Z,100388.75
2022-09-20T03:30:57.424Z,100394.00
2022-09-20T03:33:30.779Z,100394.84
2022-09-20T03:36:08.555Z,100396.56
2022-09-20T03:38:55.136Z,100399.13
2022-09-20T03:41:35.476Z,100393.84
2022-09-20T03:44:11.546Z,100386.91
2022-09-20T03:46:43.453Z,100392.09
2022-09-20T03:49:50.961Z,100394.59
2022-09-20T03:52:27.839Z,100399.00
2022-09-20T03:55:24.452Z,100401.56
2022-09-20T03:57:57.924Z,100393.66
2022-09-20T04:00:27.999Z,100399.72
2022-09-20T04:03:13.226Z,100398.78
2022-09-20T04:05:46.836Z,100390.91
2022-09-20T04:08:21.489Z,100399.59
2022-09-20T04:10:55.263Z,100397.91
2022-09-20T04:13:32.002Z,100394.34
2022-09-20T04:16:07.041Z,100380.31
2022-09-20T04:18:37.614Z,100382.00
2022-09-20T04:21:07.551Z,100395.97
2022-09-20T04:23:40.668Z,100396.84
2022-09-20T04:26:09.797Z,100390.69
2022-09-20T04:28:41.454Z,100394.19
2022-09-20T04:31:30.690Z,100196.78
2022-09-20T04:33:58.496Z,100355.06
2022-09-20T04:36:37.768Z,100132.75
2022-09-20T04:39:18.235Z,100112.00
2022-09-20T04:42:20.946Z,100051.06
2022-09-20T04:45:20.942Z,100392.28
2022-09-20T04:48:24.277Z,100489.59
2022-09-20T04:51:11.962Z,100525.53
2022-09-20T04:54:07.457Z,100482.56
2022-09-20T04:56:43.012Z,100301.13
2022-09-20T04:59:13.534Z,99969.97
2022-09-20T05:01:58.362Z,100400.16
2022-09-20T05:05:19.856Z,100181.44
2022-09-20T05:10:44.940Z,100422.00
2022-09-20T05:13:16.437Z,100423.78
2022-09-20T05:15:51.502Z,100428.16
2022-09-20T05:18:51.814Z,100418.41
2022-09-20T05:21:49.868Z,100430.69
2022-09-20T05:24:44.019Z,100415.84
2022-09-20T05:27:22.253Z,100425.41
2022-09-20T05:29:52.588Z,100423.63
2022-09-20T05:32:24.524Z,100428.00
2022-09-20T05:34:53.903Z,100421.00
2022-09-20T05:37:31.598Z,100428.84
2022-09-20T05:40:02.724Z,100427.03
2022-09-20T05:42:37.457Z,100420.88
2022-09-20T05:45:12.839Z,100419.09
2022-09-20T05:47:46.187Z,100420.00
2022-09-20T05:50:25.693Z,100435.72
2022-09-20T05:52:54.851Z,100404.28
2022-09-20T05:55:29.572Z,100432.16
2022-09-20T05:58:10.366Z,100443.47
2022-09-20T06:00:40.704Z,100441.63
2022-09-20T06:03:15.932Z,100446.00
2022-09-20T06:05:51.166Z,100424.13
2022-09-20T06:09:03.144Z,100436.13
2022-09-20T06:11:52.952Z,100442.16
2022-09-20T06:14:28.687Z,100452.66
2022-09-20T06:17:00.306Z,100440.50
2022-09-20T06:19:38.079Z,100456.91
2022-09-20T06:22:09.143Z,100452.41
2022-09-20T06:24:39.225Z,100442.78
2022-09-20T06:27:09.788Z,100423.59
2022-09-20T06:29:39.359Z,100461.78
2022-09-20T06:32:07.747Z,100462.53
2022-09-20T06:34:36.735Z,100459.81
2022-09-20T06:37:28.636Z,100457.03
2022-09-20T06:40:16.827Z,100414.28
2022-09-20T06:42:45.296Z,100457.50
2022-09-20T06:45:13.115Z,100459.88
2022-09-20T06:47:40.993Z,100460.41
2022-09-20T06:50:15.739Z,100459.22
2022-09-20T06:52:43.763Z,100436.22
2022-09-20T06:55:12.464Z,100460.34
2022-09-20T06:57:40.479Z,100462.56
2022-09-20T07:00:11.585Z,100459.75
2022-09-20T07:02:40.145Z,100463.06
2022-09-20T07:05:11.415Z,100462.38
2022-09-20T07:07:38.999Z,100471.09
2022-09-20T07:10:07.121Z,100469.41
2022-09-20T07:12:36.162Z,100468.00
2022-09-20T07:15:03.788Z,100480.69
2022-09-20T07:17:31.495Z,100472.94
2022-09-20T07:19:59.894Z,100470.44
2022-09-20T07:22:29.070Z,100476.94
2022-09-20T07:24:58.982Z,100474.81
2022-09-20T07:27:29.329Z,100462.38
2022-09-20T07:29:57.322Z,100480.53
2022-09-20T07:32:24.981Z,100474.56
2022-09-20T07:34:53.747Z,100470.81
2022-09-20T07:37:21.563Z,100476.09
2022-09-20T07:39:52.212Z,100487.72
2022-09-20T07:42:20.202Z,100481.44
2022-09-20T07:44:49.350Z,100490.81
2022-09-20T07:47:18.720Z,100490.16
2022-09-20T07:49:46.473Z,100500.72
2022-09-20T07:52:14.670Z,100493.56
2022-09-20T07:54:54.409Z,100484.28
2022-09-20T07:57:22.108Z,100502.63
2022-09-20T07:59:49.936Z,100490.97
2022-09-20T08:02:17.756Z,100496.63
2022-09-20T08:05:10.243Z,100506.34
2022-09-20T08:07:38.518Z,100503.50
2022-09-20T08:10:08.627Z,100497.22
2022-09-20T08:15:25.864Z,100481.38
2022-09-20T08:17:53.708Z,100507.53
2022-09-20T08:20:21.427Z,100504.81
2022-09-20T08:23:19.479Z,100505.47
2022-09-20T08:25:44.209Z,100502.94
2022-09-20T08:28:11.917Z,100500.91
2022-09-20T08:30:39.544Z,100500.34
2022-09-20T08:33:07.901Z,100500.16
2022-09-20T08:35:38.201Z,100497.72
2022-09-20T08:41:02.030Z,100508.94
2022-09-20T08:43:34.875Z,100508.97
2022-09-20T08:46:06.728Z,100474.53
2022-09-20T08:48:34.537Z,100511.47
2022-09-20T08:51:05.618Z,100511.09
2022-09-20T08:53:33.617Z,100503.81
2022-09-20T08:56:04.614Z,100485.13
2022-09-20T08:58:32.204Z,100508.34
2022-09-20T09:01:00.081Z,100510.44
2022-09-20T09:03:28.248Z,100513.53
2022-09-20T09:05:56.598Z,100505.34
2022-09-20T09:08:26.135Z,100507.16
2022-09-20T09:10:55.122Z,100498.91
2022-09-20T09:13:26.516Z,100501.44
2022-09-20T09:15:57.181Z,100491.75
2022-09-20T09:18:33.039Z,100483.72
2022-09-20T09:21:04.096Z,100499.41
2022-09-20T09:23:36.269Z,100505.31
2022-09-20T09:26:04.361Z,100481.81
2022-09-20T09:28:36.817Z,100506.88
2022-09-20T09:31:15.921Z,100525.81
2022-09-20T09:33:47.021Z,100518.22
2022-09-20T09:36:15.868Z,100499.72
2022-09-20T09:38:45.430Z,100521.38
2022-09-20T09:41:26.127Z,100526.88
2022-09-20T09:44:01.851Z,100471.97
2022-09-20T09:46:31.978Z,100518.63
2022-09-20T09:49:12.050Z,100514.47
2022-09-20T09:51:42.385Z,100516.28
2022-09-20T09:54:10.598Z,100510.47
2022-09-20T09:56:57.427Z,100507.56
2022-09-20T09:59:49.293Z,100490.16
2022-09-20T10:02:30.536Z,100516.78
2022-09-20T10:05:00.650Z,100515.41
2022-09-20T10:07:32.342Z,100517.81
2022-09-20T10:10:04.900Z,100506.03
2022-09-20T10:12:48.881Z,100510.75
2022-09-20T10:15:27.100Z,100502.72
2022-09-20T10:18:01.386Z,100512.66
2022-09-20T10:20:42.853Z,100515.09
2022-09-20T10:26:08.228Z,100502.47
2022-09-20T10:28:49.365Z,100505.50
2022-09-20T10:31:26.032Z,100461.59
2022-09-20T10:34:10.568Z,100488.56
2022-09-20T10:36:40.382Z,100507.13
2022-09-20T10:39:11.811Z,100506.72
2022-09-20T10:42:04.977Z,100513.44
2022-09-20T10:44:43.999Z,100503.97
2022-09-20T10:50:29.400Z,100490.34
2022-09-20T10:53:06.441Z,100517.19
2022-09-20T10:55:39.160Z,100507.16
2022-09-20T10:58:33.325Z,100506.06
2022-09-20T11:01:02.519Z,100508.41
2022-09-20T11:03:41.881Z,100510.66
2022-09-20T11:06:14.686Z,100515.72
2022-09-20T11:08:59.514Z,100513.91
2022-09-20T11:11:29.232Z,100524.09
2022-09-20T11:13:59.358Z,100531.13
2022-09-20T11:16:28.822Z,100530.72
2022-09-20T11:19:00.352Z,100539.84
2022-09-20T11:21:29.453Z,100594.13
2022-09-20T11:23:58.746Z,100444.16
2022-09-20T11:26:29.811Z,100223.31
2022-09-20T11:29:04.487Z,100364.31
2022-09-20T11:31:33.492Z,100384.59
2022-09-20T11:34:04.404Z,100449.94
2022-09-20T11:36:34.724Z,100398.06
2022-09-20T11:39:05.018Z,100187.56
2022-09-20T11:41:33.971Z,100618.56
2022-09-20T11:44:04.174Z,100573.19
2022-09-20T11:46:33.401Z,100243.81
2022-09-20T11:49:03.564Z,100662.13
2022-09-20T11:52:19.552Z,100566.50
2022-09-20T11:55:11.316Z,100546.00
2022-09-20T11:57:39.286Z,100444.84
2022-09-20T12:00:10.107Z,100453.25
2022-09-20T12:02:42.034Z,100524.06
2022-09-20T12:05:26.319Z,100518.44
2022-09-20T12:07:54.940Z,100306.09
2022-09-20T12:10:23.786Z,100502.72
2022-09-20T12:12:56.030Z,100529.75
2022-09-20T12:15:25.430Z,100527.22
2022-09-20T12:18:15.378Z,100533.34
2022-09-20T12:21:04.743Z,100533.34
2022-09-20T12:24:09.502Z,100533.25
2022-09-20T12:26:45.109Z,100498.44
2022-09-20T12:29:52.927Z,100524.38
2022-09-20T12:32:56.202Z,100521.81
2022-09-20T12:36:26.755Z,100518.75
2022-09-20T12:39:04.539Z,100523.22
2022-09-20T12:41:46.432Z,100516.66
2022-09-20T12:44:29.529Z,100502.13
2022-09-20T12:46:58.149Z,100522.47
2022-09-20T12:50:09.732Z,100525.31
2022-09-20T12:52:56.872Z,100513.97
2022-09-20T12:55:34.773Z,100524.09
2022-09-20T12:58:04.110Z,100518.13
2022-09-20T13:00:38.887Z,100471.38
2022-09-20T13:03:23.792Z,100525.00
2022-09-20T13:05:52.596Z,100486.31
2022-09-20T13:08:21.347Z,100524.22
2022-09-20T13:10:51.770Z,100513.44
2022-09-20T13:13:28.854Z,100517.97
2022-09-20T13:15:56.488Z,100522.16
2022-09-20T13:18:25.116Z,100517.84
2022-09-20T13:20:53.855Z,100516.13
2022-09-20T13:23:25.080Z,100484.75
2022-09-20T13:25:54.288Z,100521.00
2022-09-20T13:28:28.747Z,100523.16
2022-09-20T13:31:23.261Z,100515.59
2022-09-20T13:33:50.959Z,100508.53
2022-09-20T13:36:23.129Z,100507.28
2022-09-20T13:38:51.015Z,100496.81
2022-09-20T13:41:20.094Z,100540.84
2022-09-20T13:43:49.356Z,100499.50
2022-09-20T13:46:18.067Z,100506.53
2022-09-20T13:48:47.308Z,100503.78
2022-09-20T13:51:18.700Z,100501.72
2022-09-20T13:53:46.743Z,100496.19
2022-09-20T13:56:18.678Z,100493.63
2022-09-20T13:58:48.165Z,100496.13
2022-09-20T14:01:24.398Z,100498.25
2022-09-20T14:03:52.120Z,100471.41
2022-09-20T14:06:21.714Z,100491.75
2022-09-20T14:08:50.361Z,100495.97
2022-09-20T14:11:19.728Z,100493.84
2022-09-20T14:13:50.924Z,100487.56
2022-09-20T14:16:18.925Z,100481.94
2022-09-20T14:18:47.208Z,100464.09
2022-09-20T14:21:15.513Z,100493.03
2022-09-20T14:23:51.160Z,100469.75
2022-09-20T14:26:23.943Z,100481.19
2022-09-20T14:28:53.110Z,100478.25
2022-09-20T14:31:22.768Z,100481.75
2022-09-20T14:33:54.939Z,100473.94
2022-09-20T14:36:23.936Z,100478.75
2022-09-20T14:38:52.428Z,100481.72
2022-09-20T14:41:28.787Z,100477.91
2022-09-20T14:43:59.090Z,100483.38
2022-09-20T14:46:32.977Z,100478.69
2022-09-20T14:49:37.113Z,100480.34
2022-09-20T14:52:34.373Z,100489.56
2022-09-20T14:55:02.675Z,100480.00
2022-09-20T14:57:32.182Z,100481.75
2022-09-20T15:00:06.413Z,100485.53
2022-09-20T15:02:35.849Z,100490.91
2022-09-20T15:05:03.689Z,100490.44
2022-09-20T15:07:31.714Z,100493.06
2022-09-20T15:09:59.391Z,100490.03
2022-09-20T15:12:27.144Z,100493.28
2022-09-20T15:14:54.897Z,100492.84
2022-09-20T15:17:24.004Z,100490.81
2022-09-20T15:19:51.745Z,100501.69
2022-09-20T15:22:19.375Z,100500.31
2022-09-20T15:24:48.078Z,100503.31
2022-09-20T15:27:15.719Z,100518.66
2022-09-20T15:29:43.485Z,100502.22
2022-09-20T15:32:11.403Z,100489.47
2022-09-20T15:34:40.705Z,100494.13
2022-09-20T15:37:08.551Z,100515.22
2022-09-20T15:39:36.451Z,100517.19
2022-09-20T15:42:04.536Z,100519.97
2022-09-20T15:44:32.625Z,100511.19
2022-09-20T15:47:00.402Z,100506.16
2022-09-20T15:49:31.064Z,100517.81
2022-09-20T15:52:01.496Z,100518.06
2022-09-20T15:54:29.218Z,100521.03
2022-09-20T15:56:58.364Z,100522.94
2022-09-20T15:59:26.229Z,100522.44
2022-09-20T16:01:54.035Z,100524.31
2022-09-20T16:04:21.806Z,100526.28
2022-09-20T16:06:50.335Z,100529.16
2022-09-20T16:09:19.679Z,100526.66
2022-09-20T16:11:47.612Z,100518.81
2022-09-20T16:14:15.583Z,100518.28
2022-09-20T16:16:43.287Z,100519.97
2022-09-20T16:19:20.640Z,100531.38
2022-09-20T16:21:52.483Z,100476.75
2022-09-20T16:24:26.910Z,100529.72
2022-09-20T16:26:54.689Z,100539.63
2022-09-20T16:29:23.462Z,100534.41
2022-09-20T16:31:51.322Z,100539.81
2022-09-20T16:34:19.933Z,100509.75
2022-09-20T16:36:48.858Z,100537.31
2022-09-20T16:39:17.189Z,100529.63
2022-09-20T16:41:48.276Z,100536.66
2022-09-20T16:44:15.972Z,100552.72
2022-09-20T16:46:44.471Z,100537.84
2022-09-20T16:49:13.363Z,100535.34
2022-09-20T16:51:42.562Z,100531.16
2022-09-20T16:54:12.110Z,100536.63
2022-09-20T16:56:40.692Z,100543.94
2022-09-20T16:59:10.768Z,100538.09
2022-09-20T17:01:38.786Z,100533.84
2022-09-20T17:04:06.833Z,100543.88
2022-09-20T17:06:35.233Z,100545.94
2022-09-20T17:09:02.863Z,100547.03
2022-09-20T17:11:31.532Z,100548.97
2022-09-20T17:13:59.297Z,100549.19
2022-09-20T17:16:29.726Z,100554.72
2022-09-20T17:18:58.375Z,100565.69
2022-09-20T17:21:26.218Z,100582.44
2022-09-20T17:23:55.567Z,100536.31
2022-09-20T17:26:24.311Z,100573.09
2022-09-20T17:28:53.228Z,100546.28
2022-09-20T17:31:22.900Z,100568.19
2022-09-20T17:33:52.201Z,100565.72
2022-09-20T17:36:21.312Z,100573.84
2022-09-20T17:38:49.753Z,100578.47
2022-09-20T17:41:20.821Z,100563.03
2022-09-20T17:43:48.566Z,100589.38
2022-09-20T17:46:17.603Z,100595.69
2022-09-20T17:48:48.890Z,100588.84
2022-09-20T17:51:18.786Z,100569.09
2022-09-20T17:53:46.651Z,100551.78
2022-09-20T17:56:14.640Z,100593.66
2022-09-20T17:58:42.613Z,100593.84
2022-09-20T18:01:12.812Z,100596.53
2022-09-20T18:03:42.499Z,100607.19
2022-09-20T18:06:14.682Z,100605.53
2022-09-20T18:08:46.653Z,100611.81
2022-09-20T18:11:14.738Z,100614.50
2022-09-20T18:13:42.466Z,100606.81
2022-09-20T18:16:11.289Z,100620.72
2022-09-20T18:18:39.552Z,100619.00
2022-09-20T18:21:11.862Z,100622.53
2022-09-20T18:23:40.631Z,100624.34
2022-09-20T18:26:25.943Z,100626.06
2022-09-20T18:28:57.846Z,100634.00
2022-09-20T18:31:27.202Z,100633.22
2022-09-20T18:33:59.637Z,100642.03
2022-09-20T18:36:27.750Z,100639.38
2022-09-20T18:38:55.590Z,100637.72
2022-09-20T18:41:25.884Z,100643.88
2022-09-20T18:43:54.560Z,100644.78
2022-09-20T18:46:24.924Z,100652.75
2022-09-20T18:48:53.979Z,100653.69
2022-09-20T18:51:22.012Z,100643.22
2022-09-20T18:53:49.849Z,100644.22
2022-09-20T18:56:26.458Z,100653.94
2022-09-20T18:58:55.541Z,100649.63
2022-09-20T19:01:35.059Z,100647.09
2022-09-20T19:04:08.785Z,100651.56
2022-09-20T19:06:44.149Z,100636.78
2022-09-20T19:09:16.515Z,100646.50
2022-09-20T19:11:49.839Z,100653.59
2022-09-20T19:14:18.992Z,100644.94
2022-09-20T19:16:47.034Z,100652.03
2022-09-20T19:19:38.085Z,100658.25
2022-09-20T19:22:11.201Z,100600.72
2022-09-20T19:24:50.034Z,100664.59
2022-09-20T19:27:19.526Z,100652.41
2022-09-20T19:29:47.900Z,100673.50
2022-09-20T19:32:18.713Z,100650.00
2022-09-20T19:34:50.720Z,100676.28
2022-09-20T19:37:22.726Z,100678.06
2022-09-20T19:42:30.067Z,100685.22
2022-09-20T19:45:03.763Z,100662.72
2022-09-20T19:47:36.244Z,100674.06
2022-09-20T19:50:15.920Z,100682.88
2022-09-20T19:52:44.584Z,100658.47
2022-09-20T19:55:17.037Z,100689.06
2022-09-20T19:57:48.027Z,100676.03
2022-09-20T20:00:17.469Z,100658.59
2022-09-20T20:02:45.977Z,100665.56
2022-09-20T20:05:18.855Z,100686.59
2022-09-20T20:07:59.996Z,100677.88
2022-09-20T20:10:51.144Z,100708.50
2022-09-20T20:13:41.841Z,100706.84
2022-09-20T20:16:13.644Z,100716.44
2022-09-20T20:18:44.038Z,100714.69
2022-09-20T20:21:15.614Z,100701.56
2022-09-20T20:23:55.428Z,100683.19
2022-09-20T20:26:23.660Z,100714.63
2022-09-20T20:28:53.066Z,100726.00
2022-09-20T20:31:21.455Z,100724.22
2022-09-20T20:33:49.588Z,100711.97
2022-09-20T20:36:20.181Z,100731.28
2022-09-20T20:38:52.665Z,100706.81
2022-09-20T20:41:41.087Z,100732.16
2022-09-20T20:44:20.256Z,100727.81
2022-09-20T20:46:50.906Z,100727.97
2022-09-20T20:49:18.943Z,100741.00
2022-09-20T20:51:47.625Z,100741.03
2022-09-20T20:54:16.899Z,100719.19
2022-09-20T20:56:47.634Z,100734.97
2022-09-20T20:59:18.104Z,100756.94
2022-09-20T21:01:48.370Z,100706.22
2022-09-20T21:04:34.008Z,100751.69
2022-09-20T21:07:05.074Z,100748.22
2022-09-20T21:09:34.520Z,100742.13
2022-09-20T21:12:03.066Z,100719.41
2022-09-20T21:14:33.992Z,100758.84
2022-09-20T21:17:02.497Z,100756.19
2022-09-20T21:19:30.967Z,100766.72
2022-09-20T21:21:58.825Z,100755.34
2022-09-20T21:24:26.859Z,100765.84
2022-09-20T21:26:54.750Z,100761.47
2022-09-20T21:29:22.944Z,100764.13
2022-09-20T21:31:52.372Z,100740.53
2022-09-20T21:34:20.320Z,100767.66
2022-09-20T21:36:48.404Z,100779.06
2022-09-20T21:39:16.305Z,100769.41
2022-09-20T21:41:44.419Z,100772.03
2022-09-20T21:44:12.415Z,100773.78
2022-09-20T21:46:41.020Z,100775.56
2022-09-20T21:49:11.618Z,100769.44
2022-09-20T21:51:39.675Z,100772.94
2022-09-20T21:54:07.366Z,100771.19
2022-09-20T21:56:35.896Z,100772.94
2022-09-20T21:59:04.265Z,100773.84
2022-09-20T22:01:34.559Z,100774.72
2022-09-20T22:04:05.342Z,100782.59
2022-09-20T22:06:35.171Z,100778.22
2022-09-20T22:09:03.701Z,100796.63
2022-09-20T22:11:32.248Z,100779.09
2022-09-20T22:14:00.072Z,100777.34
2022-09-20T22:16:28.406Z,100778.25
2022-09-20T22:18:56.348Z,100752.88
2022-09-20T22:21:25.080Z,100781.78
2022-09-20T22:23:56.861Z,100792.31
2022-09-20T22:26:24.900Z,100785.31
2022-09-20T22:28:52.588Z,100779.19
2022-09-20T22:31:21.138Z,100777.44
2022-09-20T22:33:50.235Z,100788.81
2022-09-20T22:36:20.026Z,100789.72
2022-09-20T22:38:47.757Z,100790.56
2022-09-20T22:41:17.613Z,100795.84
2022-09-20T22:43:45.321Z,100794.03
2022-09-20T22:46:13.865Z,100786.19
2022-09-20T22:48:41.704Z,100793.16
2022-09-20T22:51:10.484Z,100760.78
2022-09-20T22:53:38.206Z,100788.78
2022-09-20T22:56:06.607Z,100786.16
2022-09-20T22:58:36.368Z,100792.28
2022-09-20T23:01:05.956Z,100789.66
2022-09-20T23:03:33.656Z,100794.03
2022-09-20T23:06:02.878Z,100798.44
2022-09-20T23:08:31.948Z,100796.66
2022-09-20T23:11:03.276Z,100794.91
2022-09-20T23:13:30.954Z,100747.63
2022-09-20T23:15:59.984Z,100802.78
2022-09-20T23:18:27.552Z,100795.78
2022-09-20T23:21:01.510Z,100798.41
2022-09-20T23:23:29.258Z,100792.28
2022-09-20T23:25:57.091Z,100791.41
2022-09-20T23:28:27.323Z,100792.25
2022-09-20T23:30:55.136Z,100790.50
2022-09-20T23:33:24.291Z,100796.63
2022-09-20T23:35:51.982Z,100796.63
2022-09-20T23:38:19.560Z,100795.75
2022-09-20T23:40:47.172Z,100796.59
2022-09-20T23:43:14.941Z,100797.47
2022-09-20T23:45:42.585Z,100800.09
2022-09-20T23:48:10.360Z,100791.34
2022-09-20T23:50:39.276Z,100790.44
2022-09-20T23:53:06.958Z,100793.06
2022-09-20T23:55:34.533Z,100790.41
2022-09-20T23:58:02.186Z,100793.94
